createdAt,value
2023-10-13T03:41:22.196Z,15.30
2023-10-13T03:44:31.233Z,15.35
2023-10-13T03:47:34.733Z,13.95
2023-10-13T03:50:47.136Z,13.07
2023-10-13T03:53:56.367Z,14.00
2023-10-13T03:57:05.507Z,12.55
2023-10-13T04:00:14.117Z,12.27
2023-10-13T04:03:19.210Z,11.32
2023-10-13T04:06:41.859Z,12.88
2023-10-13T04:09:50.501Z,12.35
2023-10-13T04:13:22.816Z,12.60
2023-10-13T04:16:28.449Z,11.68
2023-10-13T04:19:41.545Z,11.85
2023-10-13T04:22:47.133Z,11.20
2023-10-13T04:25:50.161Z,11.32
2023-10-13T04:28:53.359Z,11.48
2023-10-13T04:32:01.870Z,12.07
2023-10-13T04:35:15.118Z,12.00
2023-10-13T04:38:21.580Z,11.50
2023-10-13T04:41:59.089Z,11.27
2023-10-13T04:45:17.084Z,11.55
2023-10-13T04:48:22.919Z,11.57
2023-10-13T04:51:44.620Z,11.63
2023-10-13T04:54:50.675Z,11.00
2023-10-13T04:58:11.662Z,11.50
2023-10-13T05:01:26.658Z,10.43
2023-10-13T05:05:01.597Z,11.00
2023-10-13T05:08:23.963Z,11.60
2023-10-13T05:11:44.843Z,11.32
2023-10-13T05:15:06.322Z,10.85
2023-10-13T05:18:30.892Z,11.25
2023-10-13T05:21:52.878Z,11.38
2023-10-13T05:25:16.240Z,10.18
2023-10-13T05:28:38.210Z,11.25
2023-10-13T05:31:59.489Z,10.40
2023-10-13T05:35:21.034Z,10.48
2023-10-13T05:38:42.273Z,10.73
2023-10-13T05:42:04.103Z,11.00
2023-10-13T05:45:19.405Z,10.05
2023-10-13T05:48:36.156Z,10.93
2023-10-13T05:51:39.331Z,10.18
2023-10-13T05:54:51.451Z,9.82
2023-10-13T05:58:29.739Z,10.52
2023-10-13T06:01:51.394Z,9.30
2023-10-13T06:05:13.017Z,9.90
2023-10-13T06:08:34.534Z,9.30
2023-10-13T06:11:56.045Z,9.50
2023-10-13T06:15:19.687Z,9.27
2023-10-13T06:18:41.496Z,9.82
2023-10-13T06:22:03.947Z,9.75
2023-10-13T06:25:26.012Z,9.67
2023-10-13T06:28:44.656Z,9.60
2023-10-13T06:31:49.075Z,8.95
2023-10-13T06:34:55.206Z,10.65
2023-10-13T06:38:01.974Z,10.52
2023-10-13T06:41:06.646Z,9.75
2023-10-13T06:44:16.237Z,10.23
2023-10-13T06:47:21.555Z,11.38
2023-10-13T06:50:25.914Z,11.32
2023-10-13T06:53:30.980Z,10.18
2023-10-13T06:56:40.765Z,10.32
2023-10-13T06:59:44.027Z,10.45
2023-10-13T07:02:54.281Z,10.60
2023-10-13T07:06:00.395Z,10.80
2023-10-13T07:09:06.091Z,11.27
2023-10-13T07:12:17.806Z,12.02
2023-10-13T07:15:21.571Z,12.40
2023-10-13T07:18:24.673Z,11.85
2023-10-13T07:21:33.834Z,12.02
2023-10-13T07:24:41.171Z,11.98
2023-10-13T07:27:44.257Z,11.15
2023-10-13T07:30:55.858Z,12.57
2023-10-13T07:34:11.257Z,12.70
2023-10-13T07:37:17.424Z,13.05
2023-10-13T07:40:27.109Z,12.65
2023-10-13T07:43:32.940Z,12.70
2023-10-13T07:46:37.037Z,11.90
2023-10-13T07:49:40.759Z,12.32
2023-10-13T07:53:00.160Z,11.75
2023-10-13T07:56:09.775Z,11.27
2023-10-13T07:59:13.430Z,11.48
2023-10-13T08:02:36.597Z,12.27
2023-10-13T08:05:58.478Z,11.85
2023-10-13T08:09:10.419Z,11.77
2023-10-13T08:12:14.053Z,12.90
2023-10-13T08:15:32.646Z,12.23
2023-10-13T08:18:37.164Z,12.07
2023-10-13T08:21:40.305Z,12.35
2023-10-13T08:24:43.344Z,11.40
2023-10-13T08:28:09.468Z,11.80
2023-10-13T08:31:27.327Z,11.18
2023-10-13T08:34:31.288Z,13.05
2023-10-13T08:37:47.329Z,12.27
2023-10-13T08:41:17.533Z,11.98
2023-10-13T08:44:45.178Z,12.75
2023-10-13T08:47:54.962Z,12.70
2023-10-13T08:51:04.755Z,11.32
2023-10-13T08:54:20.521Z,12.32
2023-10-13T08:57:35.949Z,11.23
2023-10-13T09:00:57.054Z,11.30
2023-10-13T09:04:24.099Z,11.90
2023-10-13T09:07:27.354Z,10.82
2023-10-13T09:10:45.651Z,10.60
2023-10-13T09:13:48.680Z,10.18
2023-10-13T09:17:08.738Z,11.95
2023-10-13T09:20:23.941Z,12.70
2023-10-13T09:23:27.060Z,10.65
2023-10-13T09:26:37.285Z,11.43
2023-10-13T09:29:43.232Z,10.13
2023-10-13T09:32:52.550Z,10.25
2023-10-13T09:35:56.174Z,11.63
2023-10-13T09:39:14.226Z,10.88
2023-10-13T09:42:19.306Z,11.02
2023-10-13T09:45:28.529Z,11.00
2023-10-13T09:48:51.245Z,11.55
2023-10-13T09:52:01.599Z,11.45
2023-10-13T09:55:19.365Z,11.12
2023-10-13T09:58:29.823Z,11.77
2023-10-13T10:01:34.235Z,10.60
2023-10-13T10:04:52.073Z,11.18
2023-10-13T10:07:57.671Z,10.48
2023-10-13T10:11:01.655Z,10.60
2023-10-13T10:14:07.152Z,11.02
2023-10-13T10:17:10.445Z,13.30
2023-10-13T10:20:20.879Z,12.98
2023-10-13T10:23:37.007Z,10.48
2023-10-13T10:26:50.847Z,11.02
2023-10-13T10:29:55.178Z,10.38
2023-10-13T10:33:02.617Z,11.63
2023-10-13T10:36:06.923Z,10.18
2023-10-13T10:39:12.680Z,11.05
2023-10-13T10:42:24.705Z,10.30
2023-10-13T10:45:35.100Z,9.60
2023-10-13T10:48:43.879Z,9.18
2023-10-13T10:51:46.776Z,9.55
2023-10-13T10:55:00.284Z,10.07
2023-10-13T10:58:07.610Z,9.95
2023-10-13T11:01:11.828Z,9.85
2023-10-13T11:04:17.510Z,9.60
2023-10-13T11:07:25.196Z,9.95
2023-10-13T11:10:29.105Z,8.68
2023-10-13T11:14:04.673Z,9.10
2023-10-13T11:17:22.375Z,9.52
2023-10-13T11:20:45.823Z,8.30
2023-10-13T11:23:57.509Z,8.45
2023-10-13T11:27:03.698Z,8.80
2023-10-13T11:30:13.685Z,8.23
2023-10-13T11:33:25.220Z,7.93
2023-10-13T11:36:34.070Z,7.82
2023-10-13T11:39:43.323Z,8.27
2023-10-13T11:42:48.545Z,8.20
2023-10-13T11:46:17.875Z,8.45
2023-10-13T11:49:35.780Z,7.72
2023-10-13T11:52:38.684Z,8.70
2023-10-13T11:55:41.619Z,7.28
2023-10-13T11:58:44.601Z,8.20
2023-10-13T12:02:10.326Z,8.75
2023-10-13T12:05:13.789Z,7.93
2023-10-13T12:08:23.831Z,8.45
2023-10-13T12:11:32.791Z,8.23
2023-10-13T12:14:38.767Z,7.50
2023-10-13T12:17:46.252Z,7.15
2023-10-13T12:20:50.653Z,7.25
2023-10-13T12:23:55.184Z,7.28
2023-10-13T12:26:59.047Z,7.37
2023-10-13T12:30:08.859Z,8.02
2023-10-13T12:33:11.845Z,7.45
2023-10-13T12:36:15.071Z,6.78
2023-10-13T12:39:36.571Z,7.35
2023-10-13T12:42:58.068Z,6.57
2023-10-13T12:46:19.667Z,6.47
2023-10-13T12:49:41.615Z,5.43
2023-10-13T12:52:47.454Z,6.13
2023-10-13T12:55:53.362Z,5.12
2023-10-13T12:58:56.698Z,5.70
2023-10-13T13:02:00.949Z,5.30
2023-10-13T13:05:13.097Z,5.68
2023-10-13T13:08:23.199Z,5.55
2023-10-13T13:11:27.572Z,5.70
2023-10-13T13:14:31.038Z,4.30
2023-10-13T13:17:33.855Z,4.62
2023-10-13T13:20:40.313Z,4.50
2023-10-13T13:23:42.961Z,4.53
2023-10-13T13:26:45.879Z,5.10
2023-10-13T13:29:49.020Z,3.92
2023-10-13T13:32:52.627Z,4.55
2023-10-13T13:35:56.509Z,3.75
2023-10-13T13:39:01.441Z,4.32
2023-10-13T13:42:04.365Z,4.10
2023-10-13T13:45:12.745Z,4.37
2023-10-13T13:48:17.710Z,4.00
2023-10-13T13:51:27.494Z,4.07
2023-10-13T13:54:30.817Z,4.05
2023-10-13T13:57:36.846Z,4.12
2023-10-13T14:00:43.966Z,3.83
2023-10-13T14:03:48.855Z,4.28
2023-10-13T14:06:51.821Z,4.43
2023-10-13T14:10:06.978Z,4.15
2023-10-13T14:13:16.305Z,3.87
2023-10-13T14:16:21.555Z,3.67
2023-10-13T14:19:30.794Z,3.22
2023-10-13T14:22:38.397Z,3.90
2023-10-13T14:25:45.969Z,3.80
2023-10-13T14:29:03.014Z,3.40
2023-10-13T14:32:06.049Z,3.20
2023-10-13T14:35:15.933Z,3.67
2023-10-13T14:38:18.906Z,3.08
2023-10-13T14:41:22.594Z,3.05
2023-10-13T14:44:28.089Z,3.20
2023-10-13T14:47:31.179Z,3.30
2023-10-13T14:50:34.797Z,3.10
2023-10-13T14:53:38.048Z,2.95
2023-10-13T14:56:43.372Z,3.10
2023-10-13T14:59:46.240Z,3.95
2023-10-13T15:02:50.540Z,3.53
2023-10-13T15:05:56.311Z,3.08
2023-10-13T15:09:00.471Z,3.33
2023-10-13T15:12:06.870Z,3.35
2023-10-13T15:15:14.322Z,3.03
2023-10-13T15:18:18.246Z,3.40
